Time;durP1;ratioP1;P1;durP2;ratioP2;P2;SDS_P1;SDS_P2;PMS_P1;PMS_P2;Temp;Humidity;BMP_temperature;BMP_pressure;BME280_temperature;BME280_humidity;BME280_pressure;Samples;Min_cycle;Max_cycle;Signal;HPM_P1;HPM_P2
2021/04/30 00:00:57;;;;;;;22.80;19.25;;;;;;;14.18;91.56;99989.63;5078522;28;20052;-77
2021/04/30 00:04:02;;;;;;;22.05;19.65;;;;;;;14.22;91.72;99990.16;5085353;28;20051;-77
2021/04/30 00:07:06;;;;;;;29.08;25.75;;;;;;;14.25;91.97;99985.25;5066115;28;20060;-77
2021/04/30 00:10:11;;;;;;;34.75;28.33;;;;;;;14.22;92.83;99979.38;5084764;28;20036;-77
2021/04/30 00:13:15;;;;;;;39.55;31.17;;;;;;;14.16;93.38;99980.88;5084268;28;20062;-77
2021/04/30 00:16:23;;;;;;;38.10;33.92;;;;;;;14.23;93.29;99986.44;5079645;28;20066;-77
2021/04/30 00:19:28;;;;;;;43.47;36.28;;;;;;;14.20;94.09;99989.47;5070686;28;20055;-77
2021/04/30 00:22:32;;;;;;;40.17;34.08;;;;;;;14.14;94.60;99985.59;5094344;28;20051;-77
2021/04/30 00:25:37;;;;;;;39.55;33.08;;;;;;;14.12;94.63;99997.56;5094417;28;20058;-77
2021/04/30 00:28:50;;;;;;;36.93;32.30;;;;;;;14.08;94.77;100005.16;5094503;28;20055;-77
2021/04/30 00:31:54;;;;;;;37.65;32.90;;;;;;;14.10;94.86;100003.13;5094481;28;20475;-77
2021/04/30 00:35:01;;;;;;;37.80;33.30;;;;;;;14.05;94.36;100008.16;5084560;28;20036;-77
2021/04/30 00:38:05;;;;;;;38.28;33.22;;;;;;;14.09;94.69;100006.84;5087471;28;20040;-77
2021/04/30 00:41:10;;;;;;;33.05;29.20;;;;;;;14.11;94.62;100001.28;5081929;28;20045;-76
2021/04/30 00:44:30;;;;;;;30.17;26.27;;;;;;;14.05;93.54;99999.22;5089216;28;20033;-77
2021/04/30 00:47:37;;;;;;;30.45;25.05;;;;;;;14.04;93.67;100003.78;5090383;28;20047;-77
2021/04/30 00:50:41;;;;;;;28.80;25.17;;;;;;;14.02;93.61;99997.69;5077108;28;20089;-77
2021/04/30 00:53:45;;;;;;;25.60;22.75;;;;;;;14.03;93.75;99991.31;5086946;28;20461;-78
2021/04/30 00:56:49;;;;;;;27.50;23.33;;;;;;;14.00;93.21;99999.72;5081541;28;20047;-77
2021/04/30 00:59:54;;;;;;;31.27;23.63;;;;;;;13.91;93.15;100008.81;5083520;28;20044;-77
2021/04/30 01:02:59;;;;;;;26.25;19.98;;;;;;;13.83;93.04;99997.13;5082594;28;20037;-77
2021/04/30 01:06:04;;;;;;;22.52;18.52;;;;;;;13.77;93.17;100008.59;5087308;28;20075;-77
2021/04/30 01:09:08;;;;;;;21.08;17.42;;;;;;;13.79;92.63;100018.22;5085000;28;20040;-77
2021/04/30 01:12:13;;;;;;;18.35;16.20;;;;;;;13.68;92.92;100021.19;5081457;28;20047;-77
2021/04/30 01:15:19;;;;;;;20.05;15.10;;;;;;;13.69;92.66;100021.06;5086890;28;20470;-77
2021/04/30 01:18:23;;;;;;;19.42;13.75;;;;;;;13.68;92.93;100016.66;5094310;28;20043;-77
2021/04/30 01:21:30;;;;;;;14.43;12.32;;;;;;;13.72;92.59;100019.03;5081214;28;20049;-77
2021/04/30 01:24:35;;;;;;;14.32;11.60;;;;;;;13.77;92.40;100005.91;5084970;28;20406;-77
2021/04/30 01:27:41;;;;;;;14.27;11.60;;;;;;;13.79;92.00;100009.28;5084996;28;20066;-77
2021/04/30 01:30:45;;;;;;;13.70;11.18;;;;;;;13.83;91.98;100006.06;5080542;28;20040;-77
2021/04/30 01:33:54;;;;;;;14.23;11.38;;;;;;;13.86;91.63;100016.56;5075068;28;20041;-77
2021/04/30 01:36:59;;;;;;;14.02;9.82;;;;;;;13.93;91.49;100014.03;5083191;28;20040;-77
2021/04/30 01:40:14;;;;;;;11.68;9.30;;;;;;;13.87;91.21;100012.00;5094932;28;20059;-77
2021/04/30 01:43:21;;;;;;;12.48;9.35;;;;;;;13.83;90.76;100014.19;5078848;28;20067;-77
2021/04/30 01:46:25;;;;;;;12.57;9.20;;;;;;;13.81;91.40;100012.66;5083835;28;20056;-77
2021/04/30 01:49:29;;;;;;;10.40;9.05;;;;;;;13.83;91.09;100016.03;5084220;28;20047;-77
2021/04/30 01:52:33;;;;;;;11.68;8.80;;;;;;;13.86;91.14;100016.56;5079653;28;20048;-77
2021/04/30 01:55:38;;;;;;;14.20;9.20;;;;;;;13.85;91.58;100025.63;5079099;28;20048;-77
2021/04/30 01:58:43;;;;;;;12.30;9.32;;;;;;;13.87;91.46;100025.50;5081158;28;20183;-77
2021/04/30 02:01:47;;;;;;;12.13;9.43;;;;;;;13.89;91.53;100023.47;5085284;28;20051;-76
2021/04/30 02:04:51;;;;;;;16.65;9.50;;;;;;;13.95;91.25;100028.22;5085161;28;20147;-77
2021/04/30 02:08:05;;;;;;;10.38;9.27;;;;;;;13.97;91.05;100021.66;5094283;28;20063;-77
2021/04/30 02:11:28;;;;;;;10.45;9.35;;;;;;;13.95;91.15;100017.44;5085333;28;20051;-77
2021/04/30 02:14:38;;;;;;;11.82;9.65;;;;;;;13.99;91.25;100010.69;5080423;28;20051;-77
2021/04/30 02:17:43;;;;;;;11.80;9.70;;;;;;;14.10;90.91;100008.50;5083076;28;20055;-77
2021/04/30 02:20:48;;;;;;;12.57;10.23;;;;;;;14.11;91.05;100017.47;5081290;28;20045;-77
2021/04/30 02:23:53;;;;;;;13.27;10.65;;;;;;;14.11;91.03;100028.25;5088832;28;20043;-77
2021/04/30 02:26:57;;;;;;;14.57;11.23;;;;;;;14.11;91.38;100009.38;5084183;28;20040;-76
2021/04/30 02:30:04;;;;;;;15.65;12.48;;;;;;;14.02;91.32;100003.09;5082791;28;20045;-77
2021/04/30 02:33:10;;;;;;;15.02;12.18;;;;;;;14.06;91.26;100001.78;5090069;28;20048;-77
2021/04/30 02:36:15;;;;;;;16.38;12.30;;;;;;;14.09;91.25;100006.00;5089261;28;20040;-77
2021/04/30 02:39:21;;;;;;;15.90;12.35;;;;;;;14.04;91.33;100003.78;5092320;28;20049;-77
2021/04/30 02:42:25;;;;;;;17.70;13.55;;;;;;;13.95;92.14;100010.16;5080360;28;20044;-77
2021/04/30 02:45:29;;;;;;;17.95;14.13;;;;;;;13.97;92.40;100015.41;5093154;28;20036;-77
2021/04/30 02:48:37;;;;;;;18.63;14.63;;;;;;;13.99;92.87;100008.00;5093148;28;20410;-77
2021/04/30 02:51:41;;;;;;;17.10;14.57;;;;;;;13.95;92.40;100004.75;5091982;28;20041;-77
2021/04/30 02:54:46;;;;;;;19.33;14.02;;;;;;;13.96;92.95;100016.41;5087811;28;20052;-77
2021/04/30 02:58:02;;;;;;;15.98;12.88;;;;;;;14.00;92.44;100017.78;5097282;28;20040;-77
2021/04/30 03:01:09;;;;;;;16.63;12.73;;;;;;;13.94;92.28;100013.03;5094582;28;20044;-77
2021/04/30 03:04:13;;;;;;;17.15;14.98;;;;;;;13.93;92.43;100014.03;5090494;28;20044;-77
2021/04/30 03:07:18;;;;;;;16.23;13.57;;;;;;;13.86;92.33;100021.94;5084486;28;20044;-77
2021/04/30 03:10:22;;;;;;;15.77;13.70;;;;;;;13.83;92.51;100027.66;5078936;28;20048;-77
2021/04/30 03:13:27;;;;;;;16.48;13.40;;;;;;;13.86;92.95;100021.09;5087126;28;20044;-77
2021/04/30 03:16:31;;;;;;;15.48;13.80;;;;;;;13.90;92.92;100028.69;5081969;28;20045;-77
2021/04/30 03:19:35;;;;;;;17.35;14.30;;;;;;;13.95;92.78;100033.63;5075700;28;20399;-77
2021/04/30 03:22:40;;;;;;;18.77;13.68;;;;;;;14.00;93.05;100029.41;5075088;28;20041;-77
2021/04/30 03:25:45;;;;;;;17.25;14.15;;;;;;;14.04;92.85;100035.31;5082914;28;20045;-78
2021/04/30 03:28:49;;;;;;;19.65;15.80;;;;;;;14.04;92.25;100043.44;5094413;28;20043;-77
2021/04/30 03:31:53;;;;;;;24.48;17.92;;;;;;;14.01;92.05;100038.34;5095653;28;20044;-77
2021/04/30 03:35:16;;;;;;;18.33;15.93;;;;;;;14.03;92.80;100025.53;5085205;28;20052;-77
2021/04/30 03:38:20;;;;;;;19.45;17.20;;;;;;;14.06;92.46;100030.59;5085187;28;20036;-77
2021/04/30 03:41:24;;;;;;;21.60;18.50;;;;;;;14.07;92.44;100030.44;5077568;28;20041;-77
2021/04/30 03:44:05;;;;;;;21.10;18.83;;;;;;;14.12;92.56;100035.34;5102433;27;20910;-77
2021/04/30 03:47:11;;;;;;;21.15;18.58;;;;;;;14.08;92.64;100031.28;5090252;28;20052;-78
2021/04/30 03:50:05;;;;;;;23.67;17.83;;;;;;;14.05;92.55;100034.31;5097453;27;20405;-78
2021/04/30 03:53:12;;;;;;;21.60;17.73;;;;;;;14.06;92.72;100044.94;5090304;28;20040;-78
2021/04/30 03:56:16;;;;;;;22.15;18.27;;;;;;;14.08;92.82;100037.53;5089150;28;20055;-77
2021/04/30 03:59:21;;;;;;;21.52;17.48;;;;;;;14.05;93.36;100048.66;5080248;28;20055;-77
2021/04/30 04:02:25;;;;;;;20.80;17.25;;;;;;;14.05;92.98;100045.09;5090454;28;20051;-77
2021/04/30 04:05:29;;;;;;;22.90;19.35;;;;;;;13.98;93.19;100049.47;5089787;28;20071;-77
2021/04/30 04:08:34;;;;;;;23.88;19.48;;;;;;;13.93;93.27;100054.50;5085051;28;20051;-77
2021/04/30 04:11:38;;;;;;;22.23;18.45;;;;;;;13.90;93.45;100049.47;5090233;28;20043;-77
2021/04/30 04:14:43;;;;;;;23.80;18.45;;;;;;;13.93;93.57;100055.34;5081928;28;20059;-77
2021/04/30 04:17:47;;;;;;;20.50;17.45;;;;;;;13.92;93.79;100051.00;5083091;28;20051;-77
2021/04/30 04:20:52;;;;;;;22.38;17.67;;;;;;;13.86;93.26;100054.31;5085830;28;20051;-77
2021/04/30 04:23:56;;;;;;;21.77;18.45;;;;;;;13.87;93.21;100055.19;5090324;28;20052;-77
2021/04/30 04:27:01;;;;;;;23.33;17.83;;;;;;;13.83;93.12;100056.50;5071441;28;20063;-77
2021/04/30 04:30:08;;;;;;;22.83;16.90;;;;;;;13.85;93.33;100052.63;5089524;28;20075;-77
2021/04/30 04:33:13;;;;;;;22.52;18.05;;;;;;;13.83;93.50;100059.19;5088107;28;20081;-77
2021/04/30 04:36:17;;;;;;;22.50;17.05;;;;;;;13.87;93.69;100069.53;5089927;28;20047;-77
2021/04/30 04:39:22;;;;;;;21.73;16.40;;;;;;;13.95;93.66;100074.09;5084672;28;20073;-77
2021/04/30 04:42:26;;;;;;;17.17;14.95;;;;;;;14.04;93.19;100075.81;5085333;28;20054;-77
2021/04/30 04:45:31;;;;;;;21.13;15.50;;;;;;;14.04;92.36;100078.50;5090757;28;20055;-77
2021/04/30 04:48:35;;;;;;;18.08;16.10;;;;;;;14.03;92.01;100074.09;5090058;28;20059;-77
2021/04/30 04:51:39;;;;;;;19.85;16.02;;;;;;;13.98;92.21;100084.53;5090430;28;20381;-77
2021/04/30 04:54:43;;;;;;;21.52;16.27;;;;;;;14.04;92.32;100078.50;5090371;28;20047;-77
2021/04/30 04:57:48;;;;;;;19.65;15.82;;;;;;;14.10;92.17;100089.50;5088451;28;20525;-77
2021/04/30 05:00:52;;;;;;;20.63;16.02;;;;;;;14.19;92.44;100093.06;5079846;28;20055;-77
2021/04/30 05:03:57;;;;;;;51.67;45.47;;;;;;;14.23;92.17;100094.41;5087028;28;20044;-77
2021/04/30 05:07:01;;;;;;;68.90;56.95;;;;;;;14.28;92.18;100095.63;5076671;28;20044;-78
2021/04/30 05:10:05;;;;;;;24.02;19.65;;;;;;;14.30;91.88;100098.16;5076056;28;20048;-77
2021/04/30 05:13:10;;;;;;;17.75;15.82;;;;;;;14.32;91.23;100094.31;5076514;28;20043;-77
2021/04/30 05:16:15;;;;;;;19.35;16.27;;;;;;;14.37;90.98;100090.28;5069594;28;20044;-77
2021/04/30 05:19:19;;;;;;;21.45;16.35;;;;;;;14.41;91.17;100097.88;5046385;28;20043;-77
2021/04/30 05:22:24;;;;;;;23.23;16.75;;;;;;;14.47;90.81;100102.59;5076408;28;20384;-77
2021/04/30 05:25:28;;;;;;;23.05;18.67;;;;;;;14.56;90.44;100104.34;5076313;28;20043;-77
2021/04/30 05:28:33;;;;;;;25.02;17.83;;;;;;;14.60;90.75;100116.50;5075860;28;20569;-77
2021/04/30 05:31:38;;;;;;;20.52;17.38;;;;;;;14.67;90.26;100108.56;5054486;28;20047;-77
2021/04/30 05:34:42;;;;;;;21.63;18.63;;;;;;;14.81;90.16;100111.44;5048235;28;20060;-77
2021/04/30 05:37:46;;;;;;;22.33;18.30;;;;;;;15.12;89.23;100113.47;5066448;28;20064;-77
2021/04/30 05:40:50;;;;;;;29.50;19.65;;;;;;;15.58;88.08;100118.19;5046173;28;20051;-77
2021/04/30 05:43:55;;;;;;;20.42;17.52;;;;;;;15.84;86.58;100126.94;5045629;28;20040;-79
2021/04/30 05:46:59;;;;;;;24.90;18.25;;;;;;;16.03;85.69;100129.22;5053889;28;20049;-77
2021/04/30 05:50:05;;;;;;;22.75;16.42;;;;;;;16.69;83.42;100128.75;5035315;28;20052;-77
2021/04/30 05:53:09;;;;;;;21.15;17.88;;;;;;;17.43;79.44;100119.03;5035845;28;20052;-76
2021/04/30 05:56:14;;;;;;;20.83;16.80;;;;;;;18.01;76.53;100118.25;5036342;28;20068;-76
2021/04/30 05:59:18;;;;;;;22.80;20.30;;;;;;;18.10;76.02;100106.22;5048684;28;20064;-76
2021/04/30 06:02:22;;;;;;;30.48;24.77;;;;;;;18.54;75.75;100098.84;5056920;28;20055;-76
2021/04/30 06:05:27;;;;;;;31.13;26.83;;;;;;;19.33;71.81;100099.66;5057028;28;20056;-76
2021/04/30 06:08:32;;;;;;;28.70;25.77;;;;;;;23.30;57.51;100096.44;5055380;28;20052;-77
2021/04/30 06:11:36;;;;;;;31.42;28.10;;;;;;;22.96;60.04;100102.38;5056205;28;20052;-77
2021/04/30 06:14:40;;;;;;;35.90;28.77;;;;;;;25.80;50.33;100096.81;5039360;28;20056;-76
2021/04/30 06:17:44;;;;;;;31.80;28.60;;;;;;;24.95;51.81;100104.53;5053416;28;20052;-76
2021/04/30 06:20:49;;;;;;;30.92;27.77;;;;;;;24.49;51.88;100116.13;5061016;28;20060;-76
2021/04/30 06:23:53;;;;;;;32.03;28.67;;;;;;;22.75;57.86;100119.16;5051052;28;20056;-76
2021/04/30 06:26:58;;;;;;;31.92;28.70;;;;;;;21.07;62.78;100117.34;5071775;28;20490;-76
2021/04/30 06:30:02;;;;;;;34.63;29.27;;;;;;;20.20;66.56;100119.94;5071026;28;20495;-76
2021/04/30 06:33:10;;;;;;;33.38;29.95;;;;;;;20.46;66.92;100119.25;5052386;28;20052;-76
2021/04/30 06:36:15;;;;;;;33.83;30.27;;;;;;;20.35;67.30;100115.22;5046990;28;20407;-81
2021/04/30 06:39:23;;;;;;;31.80;28.60;;;;;;;21.78;64.04;100107.44;5053297;28;20404;-76
2021/04/30 06:42:29;;;;;;;30.55;27.05;;;;;;;23.39;57.38;100109.88;5057657;28;20052;-76
2021/04/30 06:45:33;;;;;;;32.90;28.17;;;;;;;23.47;56.23;100104.97;5044821;28;20047;-76
2021/04/30 06:48:38;;;;;;;31.92;28.08;;;;;;;24.33;53.90;100115.91;5046880;28;20048;-76
2021/04/30 06:51:43;;;;;;;30.85;27.27;;;;;;;28.95;43.12;100114.72;5053288;28;20404;-77
2021/04/30 06:54:47;;;;;;;27.60;23.70;;;;;;;32.91;35.27;100109.81;5053122;28;20045;-77
2021/04/30 06:57:51;;;;;;;27.05;24.33;;;;;;;31.08;37.10;100115.09;5061592;28;20045;-76
2021/04/30 07:00:56;;;;;;;27.10;24.17;;;;;;;29.93;39.77;100125.31;5052135;28;20067;-77
2021/04/30 07:04:00;;;;;;;30.67;25.10;;;;;;;27.44;45.71;100129.13;5071702;28;20051;-77
2021/04/30 07:07:04;;;;;;;27.52;24.80;;;;;;;25.32;50.17;100129.13;5073818;28;20047;-76
2021/04/30 07:10:10;;;;;;;29.95;27.20;;;;;;;24.37;53.30;100128.94;5073009;28;20043;-77
2021/04/30 07:13:14;;;;;;;26.98;24.08;;;;;;;28.95;42.67;100121.09;5073525;28;20041;-78
2021/04/30 07:16:19;;;;;;;29.05;24.58;;;;;;;33.08;35.05;100113.06;5073184;28;20039;-78
2021/04/30 07:19:24;;;;;;;25.90;23.50;;;;;;;35.75;30.84;100100.72;5073468;28;20071;-79
2021/04/30 07:22:29;;;;;;;23.50;21.00;;;;;;;38.14;27.75;100102.34;5073404;28;20033;-83
2021/04/30 07:25:34;;;;;;;24.00;21.48;;;;;;;38.94;26.01;100099.16;5072734;28;20510;-79
2021/04/30 07:28:38;;;;;;;23.98;21.80;;;;;;;38.24;26.61;100095.63;5067349;28;20047;-78
2021/04/30 07:31:42;;;;;;;22.05;20.05;;;;;;;38.90;26.18;100103.78;5060246;28;20397;-78
2021/04/30 07:34:47;;;;;;;21.70;19.50;;;;;;;40.54;23.65;100088.34;5047413;28;20088;-78
2021/04/30 07:37:51;;;;;;;16.90;15.43;;;;;;;42.87;22.02;100076.31;5054563;28;20060;-79
2021/04/30 07:40:56;;;;;;;18.13;16.30;;;;;;;43.45;21.04;100095.50;5046382;28;20056;-79
2021/04/30 07:44:00;;;;;;;18.35;16.40;;;;;;;45.28;19.42;100082.44;5049719;28;20045;-77
2021/04/30 07:47:05;;;;;;;17.88;16.13;;;;;;;44.29;20.16;100065.09;5053391;28;20041;-77
2021/04/30 07:50:10;;;;;;;16.90;15.30;;;;;;;44.49;20.42;100058.34;5047371;28;20056;-79
2021/04/30 07:53:15;;;;;;;15.23;13.73;;;;;;;44.71;20.06;100057.63;5051799;28;20056;-76
2021/04/30 07:56:19;;;;;;;18.67;16.63;;;;;;;44.56;19.86;100059.31;5053482;28;20052;-79
2021/04/30 07:59:24;;;;;;;16.13;14.73;;;;;;;44.63;19.97;100055.81;5050837;28;20056;-76
2021/04/30 08:02:28;;;;;;;18.90;17.08;;;;;;;42.60;21.37;100069.41;5050021;28;20064;-76
2021/04/30 08:05:33;;;;;;;16.92;15.13;;;;;;;43.97;20.64;100067.91;5054828;28;20049;-76
2021/04/30 08:08:39;;;;;;;18.13;16.52;;;;;;;42.23;21.98;100074.22;5053300;28;20060;-76
2021/04/30 08:11:43;;;;;;;14.95;13.60;;;;;;;41.44;21.77;100083.88;5052789;28;20052;-75
2021/04/30 08:14:49;;;;;;;16.73;14.80;;;;;;;41.45;22.79;100070.59;5053157;28;20056;-77
2021/04/30 08:17:53;;;;;;;16.00;14.43;;;;;;;41.21;22.61;100078.94;5052797;28;20404;-76
2021/04/30 08:20:58;;;;;;;12.25;11.05;;;;;;;39.84;23.50;100082.44;5068835;28;20048;-76
2021/04/30 08:24:03;;;;;;;11.30;10.07;;;;;;;40.43;23.16;100083.38;5073182;28;20041;-76
2021/04/30 08:27:08;;;;;;;17.02;15.23;;;;;;;36.59;27.86;100087.38;5072897;28;20059;-76
2021/04/30 08:30:13;;;;;;;20.35;18.25;;;;;;;31.91;34.82;100085.97;5072850;28;20050;-79
2021/04/30 08:33:18;;;;;;;20.35;18.45;;;;;;;31.16;36.93;100089.59;5056284;28;20045;-78
2021/04/30 08:36:22;;;;;;;20.83;17.23;;;;;;;29.69;39.44;100096.34;5055318;28;20041;-78
2021/04/30 08:39:27;;;;;;;16.90;15.30;;;;;;;27.77;42.14;100094.09;5055300;28;20041;-78
2021/04/30 08:42:35;;;;;;;17.17;15.55;;;;;;;26.41;45.40;100099.03;5056827;28;20044;-77
2021/04/30 08:45:40;;;;;;;17.55;14.20;;;;;;;25.45;47.24;100106.97;5055988;28;20037;-78
2021/04/30 08:48:45;;;;;;;13.30;11.90;;;;;;;25.79;46.85;100111.63;5056370;28;20071;-78
2021/04/30 08:51:50;;;;;;;12.30;11.10;;;;;;;26.14;45.43;100118.00;5040582;28;20040;-78
2021/04/30 08:54:57;;;;;;;12.23;10.93;;;;;;;25.76;46.60;100123.09;5055930;28;20495;-78
2021/04/30 08:58:04;;;;;;;12.15;10.93;;;;;;;25.83;46.90;100123.81;5056167;28;20040;-78
2021/04/30 09:01:09;;;;;;;21.50;19.20;;;;;;;25.07;51.29;100123.78;5053732;28;20044;-77
2021/04/30 09:04:13;;;;;;;22.52;20.10;;;;;;;24.04;53.65;100122.97;5053219;28;20060;-77
2021/04/30 09:07:20;;;;;;;19.48;17.52;;;;;;;23.41;55.04;100114.06;5055085;28;20049;-77
2021/04/30 09:10:27;;;;;;;17.33;15.50;;;;;;;22.98;56.23;100121.31;5043658;28;20056;-78
2021/04/30 09:13:31;;;;;;;18.08;15.35;;;;;;;22.78;57.44;100115.97;5041055;28;20049;-77
2021/04/30 09:17:04;;;;;;;15.10;13.07;;;;;;;22.66;56.59;100115.81;5036027;28;20072;-78
2021/04/30 09:20:09;;;;;;;13.95;11.35;;;;;;;23.16;54.39;100113.19;5044044;28;20048;-77
2021/04/30 09:23:49;;;;;;;15.98;12.57;;;;;;;23.47;53.12;100115.09;5080873;28;20044;-78
2021/04/30 09:26:55;;;;;;;15.85;12.98;;;;;;;23.80;53.01;100118.38;5054820;28;20056;-78
2021/04/30 09:30:26;;;;;;;14.60;11.63;;;;;;;24.11;52.63;100122.91;5055003;28;20033;-78
2021/04/30 09:33:31;;;;;;;13.32;11.35;;;;;;;24.24;51.74;100114.53;5058488;28;20045;-78
2021/04/30 09:36:55;;;;;;;18.02;11.68;;;;;;;24.67;50.99;100117.16;5053300;28;20052;-79
2021/04/30 09:40:02;;;;;;;13.63;12.00;;;;;;;24.65;51.01;100108.31;5047426;28;20052;-78
2021/04/30 09:43:09;;;;;;;14.32;12.82;;;;;;;24.30;51.86;100111.72;5050818;28;20523;-78
2021/04/30 09:46:23;;;;;;;14.43;12.93;;;;;;;24.51;53.42;100113.16;5048250;28;20048;-79
2021/04/30 09:49:32;;;;;;;15.82;14.07;;;;;;;24.32;52.41;100115.06;5054705;28;20045;-78
2021/04/30 09:52:36;;;;;;;21.80;15.15;;;;;;;24.11;53.07;100122.91;5052501;28;20404;-78
2021/04/30 09:55:51;;;;;;;14.77;12.90;;;;;;;24.10;52.71;100119.31;5051941;28;20400;-79
2021/04/30 09:58:55;;;;;;;16.02;13.00;;;;;;;23.79;53.40;100109.31;5053470;28;20044;-78
2021/04/30 10:02:05;;;;;;;14.60;12.00;;;;;;;23.69;53.07;100105.41;5060505;28;20032;-79
2021/04/30 10:05:18;;;;;;;14.05;12.65;;;;;;;23.72;53.14;100108.53;5046125;28;20035;-79
2021/04/30 10:08:23;;;;;;;13.98;11.32;;;;;;;23.78;53.48;100102.13;5058476;28;20055;-80
2021/04/30 10:11:30;;;;;;;15.50;11.60;;;;;;;23.95;52.89;100103.22;5059042;28;20060;-78
2021/04/30 10:14:35;;;;;;;12.93;11.18;;;;;;;23.79;53.11;100109.31;5053875;28;20067;-78
2021/04/30 10:17:40;;;;;;;11.93;10.45;;;;;;;23.90;53.46;100097.56;5054250;28;20052;-78
2021/04/30 10:20:45;;;;;;;13.23;10.27;;;;;;;24.04;52.32;100094.69;5067372;28;20055;-79
2021/04/30 10:23:51;;;;;;;12.43;10.40;;;;;;;24.12;51.77;100087.03;5066447;28;20048;-78
2021/04/30 10:26:57;;;;;;;12.00;8.82;;;;;;;24.12;51.94;100089.75;5054028;28;20063;-78
2021/04/30 10:30:13;;;;;;;15.65;6.55;;;;;;;24.30;51.73;100095.25;5050396;28;20063;-78
2021/04/30 10:33:34;;;;;;;6.93;5.15;;;;;;;24.67;49.46;100098.78;5051763;28;20044;-78
2021/04/30 10:36:43;;;;;;;8.45;4.40;;;;;;;24.77;48.77;100104.59;5054488;28;20044;-78
2021/04/30 10:40:06;;;;;;;7.90;5.10;;;;;;;24.57;48.09;100093.84;5053933;28;20052;-79
2021/04/30 10:43:18;;;;;;;6.03;4.80;;;;;;;24.48;48.08;100095.25;5062245;28;20055;-78
2021/04/30 10:46:23;;;;;;;8.98;4.90;;;;;;;24.57;48.21;100088.34;5072951;28;20056;-78
2021/04/30 10:49:28;;;;;;;7.93;4.00;;;;;;;24.61;47.03;100086.00;5073780;28;20056;-78
2021/04/30 10:52:32;;;;;;;5.32;3.75;;;;;;;24.60;46.82;100084.31;5060432;28;20427;-77
2021/04/30 10:55:41;;;;;;;6.57;3.53;;;;;;;24.59;47.06;100069.75;5053904;28;20048;-76
2021/04/30 10:58:45;;;;;;;4.88;3.55;;;;;;;24.69;46.77;100054.66;5053532;28;20127;-78
2021/04/30 11:01:51;;;;;;;7.93;4.63;;;;;;;24.33;48.62;100050.91;5051355;28;20059;-78
2021/04/30 11:05:05;;;;;;;6.97;5.53;;;;;;;24.20;50.41;100044.72;5033835;28;20040;-78
2021/04/30 11:08:10;;;;;;;8.55;6.38;;;;;;;24.02;50.87;100042.00;5062570;28;20090;-78
2021/04/30 11:11:16;;;;;;;8.15;6.43;;;;;;;24.24;49.48;100040.47;5073567;28;20048;-78
2021/04/30 11:14:35;;;;;;;6.70;5.50;;;;;;;24.24;48.55;100044.06;5073926;28;20418;-78
2021/04/30 11:17:53;;;;;;;7.25;5.45;;;;;;;24.12;49.71;100034.09;5073583;28;20411;-78
2021/04/30 11:21:12;;;;;;;6.68;4.80;;;;;;;23.99;49.79;100047.94;5070558;28;20055;-78
2021/04/30 11:24:30;;;;;;;7.60;5.07;;;;;;;23.96;49.49;100038.25;5073067;28;20068;-79
2021/04/30 11:27:35;;;;;;;8.00;4.90;;;;;;;23.87;49.42;100034.97;5047048;28;20455;-79
2021/04/30 11:30:40;;;;;;;8.35;5.82;;;;;;;23.66;50.08;100032.69;5053655;28;20052;-79
2021/04/30 11:34:05;;;;;;;8.40;5.88;;;;;;;23.59;50.61;100026.44;5033430;28;20499;-78
2021/04/30 11:37:10;;;;;;;8.25;5.93;;;;;;;23.73;50.72;100033.44;5043371;28;20048;-79
2021/04/30 11:40:16;;;;;;;7.50;5.95;;;;;;;23.82;50.09;100014.81;5053807;28;20052;-79
2021/04/30 11:43:20;;;;;;;8.20;5.18;;;;;;;23.80;49.50;100004.06;5055358;28;20519;-78
2021/04/30 11:46:24;;;;;;;8.52;5.00;;;;;;;23.77;49.53;100018.25;5056024;28;20052;-77
2021/04/30 11:49:37;;;;;;;6.68;5.10;;;;;;;23.42;49.69;100008.91;5049403;28;20056;-78
2021/04/30 11:52:43;;;;;;;6.30;4.72;;;;;;;23.35;50.16;100001.78;5048568;28;20044;-79
2021/04/30 11:55:47;;;;;;;7.40;5.47;;;;;;;23.33;51.50;100008.31;5060980;28;20507;-79
2021/04/30 11:58:52;;;;;;;9.35;5.38;;;;;;;23.33;51.34;99996.56;5050395;28;20523;-78
2021/04/30 12:01:58;;;;;;;7.15;5.38;;;;;;;23.53;52.27;100004.59;5050193;28;20072;-76
2021/04/30 12:05:02;;;;;;;11.13;8.00;;;;;;;23.66;51.12;99997.06;5052068;28;20120;-78
2021/04/30 12:08:14;;;;;;;12.35;11.05;;;;;;;23.71;52.52;99986.25;5051073;28;20411;-76
2021/04/30 12:11:24;;;;;;;12.82;11.43;;;;;;;23.92;52.52;99982.22;5053893;28;20060;-78
2021/04/30 12:14:28;;;;;;;15.23;12.35;;;;;;;23.61;52.10;99980.47;5042698;28;20048;-78
2021/04/30 12:17:36;;;;;;;15.32;12.63;;;;;;;23.46;53.08;99985.47;5054117;28;20048;-78
2021/04/30 12:20:44;;;;;;;17.90;13.88;;;;;;;23.45;54.49;99991.19;5056239;28;20048;-75
2021/04/30 12:23:52;;;;;;;15.98;14.05;;;;;;;23.35;53.78;99977.97;5057499;28;20052;-77
2021/04/30 12:26:57;;;;;;;19.33;16.33;;;;;;;23.24;55.45;99971.34;5057490;28;20056;-78
2021/04/30 12:30:02;;;;;;;19.95;17.85;;;;;;;23.17;55.05;99967.84;5057364;28;20056;-78
2021/04/30 12:33:07;;;;;;;19.63;16.90;;;;;;;23.07;55.42;99951.06;5057378;28;20072;-78
2021/04/30 12:36:22;;;;;;;19.30;17.30;;;;;;;23.06;55.71;99943.91;5057289;28;20048;-75
2021/04/30 12:39:27;;;;;;;20.80;17.08;;;;;;;23.15;57.03;99947.22;5057430;28;20495;-76
2021/04/30 12:42:51;;;;;;;23.17;19.52;;;;;;;23.15;56.96;99942.56;5065798;28;20530;-78
2021/04/30 12:45:56;;;;;;;20.55;18.30;;;;;;;23.24;57.64;99941.22;5055706;28;20055;-76
2021/04/30 12:49:10;;;;;;;21.00;17.50;;;;;;;23.23;56.62;99941.44;5046425;28;20065;-77
2021/04/30 12:52:15;;;;;;;21.80;17.27;;;;;;;23.10;55.69;99936.09;5062835;28;20064;-80
2021/04/30 12:55:25;;;;;;;19.65;17.60;;;;;;;23.10;56.34;99939.69;5056266;28;20048;-77
2021/04/30 12:58:29;;;;;;;20.17;17.23;;;;;;;23.22;57.13;99948.81;5055821;28;20406;-76
2021/04/30 13:01:35;;;;;;;17.75;14.68;;;;;;;23.32;55.45;99937.34;5045166;28;20494;-75
2021/04/30 13:04:44;;;;;;;18.88;15.18;;;;;;;23.43;56.05;99933.88;5052602;28;20064;-79
2021/04/30 13:07:50;;;;;;;18.92;16.80;;;;;;;23.36;56.23;99941.31;5049276;28;20041;-78
2021/04/30 13:11:04;;;;;;;18.83;16.83;;;;;;;23.34;55.76;99937.94;5039964;28;20053;-78
2021/04/30 13:14:11;;;;;;;19.10;16.13;;;;;;;23.33;56.17;99925.34;5035953;28;20060;-77
2021/04/30 13:17:16;;;;;;;18.80;16.10;;;;;;;23.25;56.81;99925.63;5042353;28;20385;-78
2021/04/30 13:20:24;;;;;;;20.48;16.98;;;;;;;23.09;55.75;99910.59;5055513;28;20052;-77
2021/04/30 13:23:42;;;;;;;17.10;15.23;;;;;;;23.06;55.85;99894.63;5054799;28;20044;-77
2021/04/30 13:27:07;;;;;;;16.55;13.65;;;;;;;23.27;55.17;99898.84;5055629;28;20052;-79
2021/04/30 13:30:11;;;;;;;13.95;10.90;;;;;;;23.23;55.35;99898.44;5055490;28;20044;-77
2021/04/30 13:33:31;;;;;;;10.45;8.05;;;;;;;23.21;53.38;99905.22;5072781;28;20052;-80
2021/04/30 13:36:53;;;;;;;8.88;6.75;;;;;;;23.16;52.83;99907.78;5075002;28;20052;-77
2021/04/30 13:40:08;;;;;;;9.30;6.15;;;;;;;23.20;52.62;99906.28;5075617;28;20486;-80
2021/04/30 13:43:13;;;;;;;8.90;4.07;;;;;;;23.26;50.95;99899.88;5086092;28;20048;-77
2021/04/30 13:46:21;;;;;;;6.13;2.80;;;;;;;23.40;49.18;99917.06;5075276;28;20055;-77
2021/04/30 13:49:54;;;;;;;3.13;1.83;;;;;;;23.28;48.39;99915.03;5075186;28;20503;-78
2021/04/30 13:53:01;;;;;;;5.40;2.38;;;;;;;23.27;49.51;99905.16;5073628;28;20434;-78
2021/04/30 13:56:06;;;;;;;5.60;2.85;;;;;;;23.44;49.36;99902.66;5035535;28;20048;-78
2021/04/30 13:59:10;;;;;;;5.57;3.03;;;;;;;23.55;49.29;99901.91;5038037;28;20411;-77
2021/04/30 14:02:17;;;;;;;6.03;2.40;;;;;;;23.56;49.16;99910.94;5044803;28;20051;-77
2021/04/30 14:05:23;;;;;;;3.92;2.58;;;;;;;23.41;48.04;99913.25;5045619;28;20048;-80
2021/04/30 14:08:28;;;;;;;3.22;1.63;;;;;;;23.30;47.37;99912.09;5046956;28;20051;-79
2021/04/30 14:11:32;;;;;;;5.28;2.13;;;;;;;23.24;45.83;99902.03;5046387;28;20506;-78
2021/04/30 14:14:38;;;;;;;3.13;1.50;;;;;;;23.23;48.17;99912.13;5050350;28;20055;-79